sensor_id;sensor_type;location;lat;lon;timestamp;P1;durP1;ratioP1;P2;durP2;ratioP2
61373;SDS011;47242;48.158;-1.586;2022-11-13T05:31:34;15.68;;;9.70;;
61373;SDS011;47242;48.158;-1.586;2022-11-13T05:34:01;16.85;;;9.05;;
61373;SDS011;47242;48.158;-1.586;2022-11-13T05:36:30;15.88;;;9.07;;
61373;SDS011;47242;48.158;-1.586;2022-11-13T05:38:56;16.23;;;8.95;;
61373;SDS011;47242;48.158;-1.586;2022-11-13T05:41:22;16.00;;;9.43;;
61373;SDS011;47242;48.158;-1.586;2022-11-13T05:43:48;18.08;;;10.50;;
61373;SDS011;47242;48.158;-1.586;2022-11-13T05:46:16;20.40;;;11.40;;
61373;SDS011;47242;48.158;-1.586;2022-11-13T05:48:47;16.95;;;10.23;;
61373;SDS011;47242;48.158;-1.586;2022-11-13T05:51:17;18.02;;;10.32;;
61373;SDS011;47242;48.158;-1.586;2022-11-13T05:53:47;13.18;;;8.57;;
61373;SDS011;47242;48.158;-1.586;2022-11-13T05:56:13;16.38;;;9.88;;
61373;SDS011;47242;48.158;-1.586;2022-11-13T05:58:45;14.75;;;9.00;;
61373;SDS011;47242;48.158;-1.586;2022-11-13T06:01:19;15.27;;;9.73;;
61373;SDS011;47242;48.158;-1.586;2022-11-13T06:03:50;20.35;;;9.82;;
61373;SDS011;47242;48.158;-1.586;2022-11-13T06:06:17;16.00;;;9.73;;
61373;SDS011;47242;48.158;-1.586;2022-11-13T06:08:44;15.32;;;9.38;;
61373;SDS011;47242;48.158;-1.586;2022-11-13T06:11:14;15.93;;;9.55;;
61373;SDS011;47242;48.158;-1.586;2022-11-13T06:13:42;16.33;;;8.85;;
61373;SDS011;47242;48.158;-1.586;2022-11-13T06:16:08;13.93;;;8.95;;
61373;SDS011;47242;48.158;-1.586;2022-11-13T06:18:39;17.88;;;9.63;;
61373;SDS011;47242;48.158;-1.586;2022-11-13T06:21:20;13.75;;;9.77;;
61373;SDS011;47242;48.158;-1.586;2022-11-13T06:23:47;19.20;;;9.60;;
61373;SDS011;47242;48.158;-1.586;2022-11-13T06:26:20;11.48;;;7.38;;
61373;SDS011;47242;48.158;-1.586;2022-11-13T06:28:48;18.50;;;9.50;;
61373;SDS011;47242;48.158;-1.586;2022-11-13T06:31:16;14.80;;;9.80;;
61373;SDS011;47242;48.158;-1.586;2022-11-13T06:33:43;19.67;;;9.60;;
61373;SDS011;47242;48.158;-1.586;2022-11-13T06:36:13;13.85;;;7.05;;
61373;SDS011;47242;48.158;-1.586;2022-11-13T06:38:43;12.43;;;9.32;;
61373;SDS011;47242;48.158;-1.586;2022-11-13T06:41:12;11.00;;;6.88;;
61373;SDS011;47242;48.158;-1.586;2022-11-13T06:43:38;14.02;;;8.55;;
61373;SDS011;47242;48.158;-1.586;2022-11-13T06:46:06;12.90;;;7.32;;
61373;SDS011;47242;48.158;-1.586;2022-11-13T06:48:41;16.88;;;9.13;;
61373;SDS011;47242;48.158;-1.586;2022-11-13T06:51:08;13.98;;;8.57;;
61373;SDS011;47242;48.158;-1.586;2022-11-13T06:53:40;14.45;;;9.60;;
61373;SDS011;47242;48.158;-1.586;2022-11-13T06:56:08;11.98;;;9.00;;
61373;SDS011;47242;48.158;-1.586;2022-11-13T06:58:35;11.55;;;6.72;;
61373;SDS011;47242;48.158;-1.586;2022-11-13T07:01:08;16.90;;;9.82;;
61373;SDS011;47242;48.158;-1.586;2022-11-13T07:03:38;18.77;;;10.48;;
61373;SDS011;47242;48.158;-1.586;2022-11-13T07:06:05;16.92;;;9.90;;
61373;SDS011;47242;48.158;-1.586;2022-11-13T07:08:33;20.70;;;10.68;;
61373;SDS011;47242;48.158;-1.586;2022-11-13T07:10:58;17.95;;;10.02;;
61373;SDS011;47242;48.158;-1.586;2022-11-13T07:13:25;16.67;;;9.70;;
61373;SDS011;47242;48.158;-1.586;2022-11-13T07:15:52;17.65;;;10.52;;
61373;SDS011;47242;48.158;-1.586;2022-11-13T07:18:18;23.90;;;13.00;;
61373;SDS011;47242;48.158;-1.586;2022-11-13T07:20:43;17.33;;;9.95;;
61373;SDS011;47242;48.158;-1.586;2022-11-13T07:23:09;17.30;;;10.45;;
61373;SDS011;47242;48.158;-1.586;2022-11-13T07:25:35;15.55;;;10.20;;
61373;SDS011;47242;48.158;-1.586;2022-11-13T07:28:01;15.95;;;10.07;;
61373;SDS011;47242;48.158;-1.586;2022-11-13T07:30:27;14.70;;;9.50;;
61373;SDS011;47242;48.158;-1.586;2022-11-13T07:32:53;19.52;;;10.50;;
61373;SDS011;47242;48.158;-1.586;2022-11-13T07:35:18;15.88;;;9.75;;
61373;SDS011;47242;48.158;-1.586;2022-11-13T07:37:44;17.30;;;10.02;;
61373;SDS011;47242;48.158;-1.586;2022-11-13T07:40:10;21.00;;;11.00;;
61373;SDS011;47242;48.158;-1.586;2022-11-13T07:42:37;19.40;;;9.65;;
61373;SDS011;47242;48.158;-1.586;2022-11-13T07:45:03;14.65;;;8.40;;
61373;SDS011;47242;48.158;-1.586;2022-11-13T07:47:29;18.05;;;8.52;;
61373;SDS011;47242;48.158;-1.586;2022-11-13T07:49:55;17.35;;;10.10;;
61373;SDS011;47242;48.158;-1.586;2022-11-13T07:52:21;19.45;;;11.05;;
61373;SDS011;47242;48.158;-1.586;2022-11-13T07:54:47;11.85;;;6.78;;
61373;SDS011;47242;48.158;-1.586;2022-11-13T07:57:12;17.52;;;9.70;;
61373;SDS011;47242;48.158;-1.586;2022-11-13T07:59:38;17.73;;;9.73;;
61373;SDS011;47242;48.158;-1.586;2022-11-13T08:02:05;18.92;;;10.13;;
61373;SDS011;47242;48.158;-1.586;2022-11-13T08:04:30;15.98;;;9.93;;
61373;SDS011;47242;48.158;-1.586;2022-11-13T08:06:56;16.98;;;10.05;;
61373;SDS011;47242;48.158;-1.586;2022-11-13T08:09:22;22.45;;;9.90;;
61373;SDS011;47242;48.158;-1.586;2022-11-13T08:11:47;19.38;;;9.73;;
61373;SDS011;47242;48.158;-1.586;2022-11-13T08:14:13;16.40;;;10.40;;
61373;SDS011;47242;48.158;-1.586;2022-11-13T08:16:39;18.15;;;8.20;;
61373;SDS011;47242;48.158;-1.586;2022-11-13T08:19:04;15.07;;;9.68;;
61373;SDS011;47242;48.158;-1.586;2022-11-13T08:21:30;16.40;;;9.73;;
61373;SDS011;47242;48.158;-1.586;2022-11-13T08:23:56;17.88;;;11.57;;
61373;SDS011;47242;48.158;-1.586;2022-11-13T08:26:21;20.63;;;12.77;;
61373;SDS011;47242;48.158;-1.586;2022-11-13T08:28:47;19.02;;;11.70;;
61373;SDS011;47242;48.158;-1.586;2022-11-13T08:31:14;21.35;;;11.15;;
61373;SDS011;47242;48.158;-1.586;2022-11-13T08:33:40;20.60;;;12.23;;
61373;SDS011;47242;48.158;-1.586;2022-11-13T08:36:07;20.90;;;12.10;;
61373;SDS011;47242;48.158;-1.586;2022-11-13T08:38:33;22.50;;;12.88;;
61373;SDS011;47242;48.158;-1.586;2022-11-13T08:40:59;20.98;;;11.93;;
61373;SDS011;47242;48.158;-1.586;2022-11-13T08:43:26;17.23;;;10.80;;
61373;SDS011;47242;48.158;-1.586;2022-11-13T08:45:51;21.35;;;11.25;;
61373;SDS011;47242;48.158;-1.586;2022-11-13T08:48:17;24.30;;;12.80;;
61373;SDS011;47242;48.158;-1.586;2022-11-13T08:50:43;21.20;;;12.43;;
61373;SDS011;47242;48.158;-1.586;2022-11-13T08:53:09;22.80;;;11.85;;
61373;SDS011;47242;48.158;-1.586;2022-11-13T08:55:35;19.08;;;12.02;;
61373;SDS011;47242;48.158;-1.586;2022-11-13T08:58:01;17.75;;;11.38;;
61373;SDS011;47242;48.158;-1.586;2022-11-13T09:00:28;16.63;;;10.68;;
61373;SDS011;47242;48.158;-1.586;2022-11-13T09:02:56;20.48;;;11.23;;
61373;SDS011;47242;48.158;-1.586;2022-11-13T09:05:22;19.17;;;11.95;;
61373;SDS011;47242;48.158;-1.586;2022-11-13T09:07:49;17.95;;;10.00;;
61373;SDS011;47242;48.158;-1.586;2022-11-13T09:10:15;18.30;;;11.05;;
61373;SDS011;47242;48.158;-1.586;2022-11-13T09:12:42;19.08;;;12.13;;
61373;SDS011;47242;48.158;-1.586;2022-11-13T09:15:08;17.25;;;10.98;;
61373;SDS011;47242;48.158;-1.586;2022-11-13T09:17:35;22.30;;;13.70;;
61373;SDS011;47242;48.158;-1.586;2022-11-13T09:20:00;20.58;;;12.77;;
61373;SDS011;47242;48.158;-1.586;2022-11-13T09:22:26;19.95;;;11.68;;
61373;SDS011;47242;48.158;-1.586;2022-11-13T09:24:52;21.48;;;12.73;;
61373;SDS011;47242;48.158;-1.586;2022-11-13T09:27:17;18.58;;;11.65;;
61373;SDS011;47242;48.158;-1.586;2022-11-13T09:29:43;18.25;;;11.07;;
61373;SDS011;47242;48.158;-1.586;2022-11-13T09:32:09;18.77;;;10.88;;
61373;SDS011;47242;48.158;-1.586;2022-11-13T09:34:34;18.70;;;11.23;;
61373;SDS011;47242;48.158;-1.586;2022-11-13T09:37:00;20.55;;;11.82;;
61373;SDS011;47242;48.158;-1.586;2022-11-13T09:39:26;27.58;;;15.10;;
61373;SDS011;47242;48.158;-1.586;2022-11-13T09:41:56;16.88;;;10.65;;
61373;SDS011;47242;48.158;-1.586;2022-11-13T09:44:39;19.38;;;11.80;;
61373;SDS011;47242;48.158;-1.586;2022-11-13T09:47:22;18.65;;;11.50;;
61373;SDS011;47242;48.158;-1.586;2022-11-13T09:49:53;19.75;;;11.93;;
61373;SDS011;47242;48.158;-1.586;2022-11-13T09:52:38;18.70;;;10.88;;
61373;SDS011;47242;48.158;-1.586;2022-11-13T09:55:13;19.10;;;12.40;;
61373;SDS011;47242;48.158;-1.586;2022-11-13T09:57:46;17.02;;;12.40;;
61373;SDS011;47242;48.158;-1.586;2022-11-13T10:00:18;18.33;;;10.55;;
61373;SDS011;47242;48.158;-1.586;2022-11-13T10:05:22;20.42;;;11.65;;
61373;SDS011;47242;48.158;-1.586;2022-11-13T10:13:01;21.10;;;12.88;;
61373;SDS011;47242;48.158;-1.586;2022-11-13T10:15:28;21.90;;;12.05;;
61373;SDS011;47242;48.158;-1.586;2022-11-13T10:25:42;22.65;;;12.45;;
61373;SDS011;47242;48.158;-1.586;2022-11-13T10:30:42;15.98;;;9.15;;
61373;SDS011;47242;48.158;-1.586;2022-11-13T10:33:12;19.80;;;11.23;;
61373;SDS011;47242;48.158;-1.586;2022-11-13T10:35:43;16.27;;;9.88;;
61373;SDS011;47242;48.158;-1.586;2022-11-13T10:38:29;19.35;;;11.40;;
61373;SDS011;47242;48.158;-1.586;2022-11-13T10:41:05;17.77;;;10.90;;
61373;SDS011;47242;48.158;-1.586;2022-11-13T10:43:47;17.30;;;10.98;;
61373;SDS011;47242;48.158;-1.586;2022-11-13T10:46:19;15.95;;;9.88;;
61373;SDS011;47242;48.158;-1.586;2022-11-13T10:48:46;17.13;;;12.05;;
61373;SDS011;47242;48.158;-1.586;2022-11-13T10:51:25;16.30;;;10.65;;
61373;SDS011;47242;48.158;-1.586;2022-11-13T10:53:53;19.38;;;11.27;;
61373;SDS011;47242;48.158;-1.586;2022-11-13T10:56:28;15.20;;;9.07;;
61373;SDS011;47242;48.158;-1.586;2022-11-13T11:01:34;13.40;;;9.93;;
61373;SDS011;47242;48.158;-1.586;2022-11-13T11:04:03;17.75;;;10.38;;
61373;SDS011;47242;48.158;-1.586;2022-11-13T11:06:31;12.48;;;9.45;;
61373;SDS011;47242;48.158;-1.586;2022-11-13T11:14:55;16.60;;;9.15;;
61373;SDS011;47242;48.158;-1.586;2022-11-13T11:19:56;11.93;;;8.07;;
61373;SDS011;47242;48.158;-1.586;2022-11-13T11:22:26;14.13;;;7.65;;
61373;SDS011;47242;48.158;-1.586;2022-11-13T11:24:56;13.43;;;9.30;;
61373;SDS011;47242;48.158;-1.586;2022-11-13T11:30:25;9.55;;;6.95;;
61373;SDS011;47242;48.158;-1.586;2022-11-13T11:36:12;14.27;;;9.18;;
61373;SDS011;47242;48.158;-1.586;2022-11-13T11:41:13;11.40;;;8.60;;
61373;SDS011;47242;48.158;-1.586;2022-11-13T11:43:42;12.93;;;8.38;;
61373;SDS011;47242;48.158;-1.586;2022-11-13T11:46:13;12.00;;;8.43;;
61373;SDS011;47242;48.158;-1.586;2022-11-13T11:48:41;13.02;;;8.63;;
61373;SDS011;47242;48.158;-1.586;2022-11-13T11:51:24;11.85;;;7.63;;
61373;SDS011;47242;48.158;-1.586;2022-11-13T11:56:50;10.68;;;7.60;;
61373;SDS011;47242;48.158;-1.586;2022-11-13T12:18:14;12.15;;;7.53;;
61373;SDS011;47242;48.158;-1.586;2022-11-13T12:20:53;11.45;;;7.03;;
61373;SDS011;47242;48.158;-1.586;2022-11-13T12:34:04;11.57;;;7.20;;
61373;SDS011;47242;48.158;-1.586;2022-11-13T12:36:31;10.17;;;6.57;;
61373;SDS011;47242;48.158;-1.586;2022-11-13T12:44:19;12.68;;;7.72;;
61373;SDS011;47242;48.158;-1.586;2022-11-13T12:46:47;12.13;;;7.80;;
61373;SDS011;47242;48.158;-1.586;2022-11-13T12:52:02;12.27;;;7.55;;
61373;SDS011;47242;48.158;-1.586;2022-11-13T12:54:40;12.00;;;7.65;;
61373;SDS011;47242;48.158;-1.586;2022-11-13T12:59:42;11.18;;;6.75;;
61373;SDS011;47242;48.158;-1.586;2022-11-13T13:05:56;10.88;;;6.97;;
61373;SDS011;47242;48.158;-1.586;2022-11-13T13:10:40;10.63;;;7.13;;
61373;SDS011;47242;48.158;-1.586;2022-11-13T13:13:13;9.65;;;7.20;;
61373;SDS011;47242;48.158;-1.586;2022-11-13T13:16:04;9.52;;;6.30;;
61373;SDS011;47242;48.158;-1.586;2022-11-13T13:18:36;11.50;;;7.90;;
61373;SDS011;47242;48.158;-1.586;2022-11-13T13:21:10;12.10;;;6.20;;
61373;SDS011;47242;48.158;-1.586;2022-11-13T13:23:42;11.10;;;7.22;;
61373;SDS011;47242;48.158;-1.586;2022-11-13T13:26:18;12.40;;;7.03;;
61373;SDS011;47242;48.158;-1.586;2022-11-13T13:28:47;10.30;;;7.43;;
61373;SDS011;47242;48.158;-1.586;2022-11-13T13:36:41;11.68;;;6.75;;
61373;SDS011;47242;48.158;-1.586;2022-11-13T13:39:21;11.88;;;7.32;;
61373;SDS011;47242;48.158;-1.586;2022-11-13T13:47:25;11.27;;;7.60;;
61373;SDS011;47242;48.158;-1.586;2022-11-13T13:49:52;8.45;;;5.97;;
61373;SDS011;47242;48.158;-1.586;2022-11-13T13:52:19;10.15;;;6.63;;
61373;SDS011;47242;48.158;-1.586;2022-11-13T13:54:54;9.48;;;6.85;;
61373;SDS011;47242;48.158;-1.586;2022-11-13T13:57:21;10.40;;;6.80;;
61373;SDS011;47242;48.158;-1.586;2022-11-13T13:59:47;10.10;;;6.90;;
61373;SDS011;47242;48.158;-1.586;2022-11-13T14:02:15;8.05;;;6.03;;
61373;SDS011;47242;48.158;-1.586;2022-11-13T14:04:44;11.55;;;6.60;;
61373;SDS011;47242;48.158;-1.586;2022-11-13T14:10:35;10.20;;;6.47;;
61373;SDS011;47242;48.158;-1.586;2022-11-13T14:12:43;10.15;;;6.38;;
61373;SDS011;47242;48.158;-1.586;2022-11-13T14:15:29;9.07;;;6.65;;
61373;SDS011;47242;48.158;-1.586;2022-11-13T14:18:11;9.13;;;6.55;;
61373;SDS011;47242;48.158;-1.586;2022-11-13T14:20:48;11.02;;;7.40;;
61373;SDS011;47242;48.158;-1.586;2022-11-13T14:23:31;9.82;;;6.03;;
61373;SDS011;47242;48.158;-1.586;2022-11-13T14:26:00;10.70;;;7.30;;
61373;SDS011;47242;48.158;-1.586;2022-11-13T14:28:27;11.15;;;6.25;;
61373;SDS011;47242;48.158;-1.586;2022-11-13T14:31:03;11.45;;;6.70;;
61373;SDS011;47242;48.158;-1.586;2022-11-13T14:33:31;11.25;;;6.47;;
61373;SDS011;47242;48.158;-1.586;2022-11-13T14:36:00;11.35;;;7.07;;
61373;SDS011;47242;48.158;-1.586;2022-11-13T14:38:28;8.65;;;6.43;;
61373;SDS011;47242;48.158;-1.586;2022-11-13T14:40:57;9.77;;;6.93;;
61373;SDS011;47242;48.158;-1.586;2022-11-13T14:43:28;9.30;;;6.28;;
61373;SDS011;47242;48.158;-1.586;2022-11-13T14:46:04;10.38;;;6.57;;
61373;SDS011;47242;48.158;-1.586;2022-11-13T14:48:55;11.07;;;6.78;;
61373;SDS011;47242;48.158;-1.586;2022-11-13T14:51:29;10.13;;;7.22;;
61373;SDS011;47242;48.158;-1.586;2022-11-13T14:54:02;11.57;;;7.18;;
61373;SDS011;47242;48.158;-1.586;2022-11-13T14:56:39;10.30;;;7.57;;
61373;SDS011;47242;48.158;-1.586;2022-11-13T14:59:15;11.05;;;6.55;;
61373;SDS011;47242;48.158;-1.586;2022-11-13T15:01:57;9.48;;;6.53;;
61373;SDS011;47242;48.158;-1.586;2022-11-13T15:04:23;10.20;;;6.25;;
61373;SDS011;47242;48.158;-1.586;2022-11-13T15:06:50;8.68;;;6.78;;
61373;SDS011;47242;48.158;-1.586;2022-11-13T15:09:20;10.40;;;6.63;;
61373;SDS011;47242;48.158;-1.586;2022-11-13T15:11:47;10.02;;;6.90;;
61373;SDS011;47242;48.158;-1.586;2022-11-13T15:14:17;10.20;;;6.80;;
61373;SDS011;47242;48.158;-1.586;2022-11-13T15:16:44;11.25;;;7.18;;
61373;SDS011;47242;48.158;-1.586;2022-11-13T15:19:31;10.77;;;7.60;;
61373;SDS011;47242;48.158;-1.586;2022-11-13T15:22:01;9.27;;;6.83;;
61373;SDS011;47242;48.158;-1.586;2022-11-13T15:24:27;10.68;;;7.05;;
61373;SDS011;47242;48.158;-1.586;2022-11-13T15:26:52;11.05;;;7.13;;
61373;SDS011;47242;48.158;-1.586;2022-11-13T15:29:18;10.63;;;7.10;;
61373;SDS011;47242;48.158;-1.586;2022-11-13T15:31:45;10.60;;;7.40;;
61373;SDS011;47242;48.158;-1.586;2022-11-13T15:34:12;11.35;;;7.50;;
61373;SDS011;47242;48.158;-1.586;2022-11-13T15:36:40;11.23;;;6.97;;
61373;SDS011;47242;48.158;-1.586;2022-11-13T15:39:06;14.02;;;8.50;;
61373;SDS011;47242;48.158;-1.586;2022-11-13T15:41:33;13.30;;;7.53;;
61373;SDS011;47242;48.158;-1.586;2022-11-13T15:44:00;9.73;;;7.22;;
61373;SDS011;47242;48.158;-1.586;2022-11-13T15:46:28;11.52;;;7.28;;
61373;SDS011;47242;48.158;-1.586;2022-11-13T15:48:54;14.27;;;7.45;;
61373;SDS011;47242;48.158;-1.586;2022-11-13T15:53:55;10.70;;;7.50;;
61373;SDS011;47242;48.158;-1.586;2022-11-13T15:56:25;12.40;;;7.63;;
61373;SDS011;47242;48.158;-1.586;2022-11-13T15:58:52;15.55;;;7.55;;
61373;SDS011;47242;48.158;-1.586;2022-11-13T16:01:18;12.90;;;7.60;;
61373;SDS011;47242;48.158;-1.586;2022-11-13T16:03:44;15.30;;;7.63;;
61373;SDS011;47242;48.158;-1.586;2022-11-13T16:06:18;12.68;;;8.18;;
61373;SDS011;47242;48.158;-1.586;2022-11-13T16:08:46;13.23;;;8.50;;
61373;SDS011;47242;48.158;-1.586;2022-11-13T16:11:18;13.63;;;8.30;;
61373;SDS011;47242;48.158;-1.586;2022-11-13T16:13:45;11.88;;;7.95;;
61373;SDS011;47242;48.158;-1.586;2022-11-13T16:16:18;12.45;;;7.47;;
61373;SDS011;47242;48.158;-1.586;2022-11-13T16:18:48;13.43;;;8.82;;
61373;SDS011;47242;48.158;-1.586;2022-11-13T16:21:14;13.25;;;8.40;;
61373;SDS011;47242;48.158;-1.586;2022-11-13T16:23:41;10.65;;;8.13;;
61373;SDS011;47242;48.158;-1.586;2022-11-13T16:26:17;14.70;;;8.90;;
61373;SDS011;47242;48.158;-1.586;2022-11-13T16:28:48;14.70;;;9.20;;
61373;SDS011;47242;48.158;-1.586;2022-11-13T16:31:18;11.60;;;7.60;;
61373;SDS011;47242;48.158;-1.586;2022-11-13T16:33:45;17.02;;;10.38;;
61373;SDS011;47242;48.158;-1.586;2022-11-13T16:36:18;16.35;;;10.77;;
61373;SDS011;47242;48.158;-1.586;2022-11-13T16:38:46;14.98;;;10.65;;
61373;SDS011;47242;48.158;-1.586;2022-11-13T16:41:15;18.83;;;10.68;;
61373;SDS011;47242;48.158;-1.586;2022-11-13T16:43:44;17.95;;;11.90;;
61373;SDS011;47242;48.158;-1.586;2022-11-13T16:46:28;19.42;;;10.70;;
61373;SDS011;47242;48.158;-1.586;2022-11-13T16:48:55;18.10;;;10.80;;
61373;SDS011;47242;48.158;-1.586;2022-11-13T16:51:21;19.17;;;12.32;;
61373;SDS011;47242;48.158;-1.586;2022-11-13T16:53:47;23.15;;;12.45;;
61373;SDS011;47242;48.158;-1.586;2022-11-13T16:56:22;21.40;;;12.70;;
61373;SDS011;47242;48.158;-1.586;2022-11-13T16:58:56;30.40;;;17.00;;
61373;SDS011;47242;48.158;-1.586;2022-11-13T17:01:22;33.53;;;18.58;;
61373;SDS011;47242;48.158;-1.586;2022-11-13T17:03:52;28.65;;;15.23;;
61373;SDS011;47242;48.158;-1.586;2022-11-13T17:06:27;24.77;;;14.48;;
61373;SDS011;47242;48.158;-1.586;2022-11-13T17:08:58;22.17;;;14.32;;
61373;SDS011;47242;48.158;-1.586;2022-11-13T17:13:55;21.25;;;13.32;;
61373;SDS011;47242;48.158;-1.586;2022-11-13T17:16:23;17.98;;;11.45;;
61373;SDS011;47242;48.158;-1.586;2022-11-13T17:18:49;23.15;;;14.57;;
61373;SDS011;47242;48.158;-1.586;2022-11-13T17:21:19;20.13;;;13.52;;
61373;SDS011;47242;48.158;-1.586;2022-11-13T17:23:46;24.10;;;13.70;;
61373;SDS011;47242;48.158;-1.586;2022-11-13T17:26:11;21.83;;;13.35;;
61373;SDS011;47242;48.158;-1.586;2022-11-13T17:28:37;22.52;;;13.38;;
61373;SDS011;47242;48.158;-1.586;2022-11-13T17:31:04;26.83;;;15.35;;
61373;SDS011;47242;48.158;-1.586;2022-11-13T17:33:34;20.42;;;11.55;;
61373;SDS011;47242;48.158;-1.586;2022-11-13T17:36:00;19.38;;;13.40;;
61373;SDS011;47242;48.158;-1.586;2022-11-13T17:38:26;25.88;;;15.02;;
61373;SDS011;47242;48.158;-1.586;2022-11-13T17:40:53;24.30;;;13.75;;
61373;SDS011;47242;48.158;-1.586;2022-11-13T17:43:19;23.30;;;13.52;;
61373;SDS011;47242;48.158;-1.586;2022-11-13T17:45:48;21.15;;;11.88;;
61373;SDS011;47242;48.158;-1.586;2022-11-13T17:48:15;28.38;;;15.55;;
61373;SDS011;47242;48.158;-1.586;2022-11-13T17:50:41;22.02;;;14.68;;
61373;SDS011;47242;48.158;-1.586;2022-11-13T17:53:07;22.42;;;12.98;;
61373;SDS011;47242;48.158;-1.586;2022-11-13T17:55:32;22.20;;;13.15;;
61373;SDS011;47242;48.158;-1.586;2022-11-13T17:57:59;23.25;;;18.55;;
61373;SDS011;47242;48.158;-1.586;2022-11-13T18:00:25;20.00;;;14.35;;
61373;SDS011;47242;48.158;-1.586;2022-11-13T18:02:50;18.40;;;11.68;;
61373;SDS011;47242;48.158;-1.586;2022-11-13T18:05:18;25.10;;;13.85;;
61373;SDS011;47242;48.158;-1.586;2022-11-13T18:07:44;22.00;;;14.00;;
61373;SDS011;47242;48.158;-1.586;2022-11-13T18:10:10;20.20;;;12.18;;
61373;SDS011;47242;48.158;-1.586;2022-11-13T18:12:35;22.27;;;13.15;;
61373;SDS011;47242;48.158;-1.586;2022-11-13T18:15:01;27.98;;;14.45;;
61373;SDS011;47242;48.158;-1.586;2022-11-13T18:17:27;20.98;;;12.52;;
61373;SDS011;47242;48.158;-1.586;2022-11-13T18:19:55;20.17;;;13.02;;
61373;SDS011;47242;48.158;-1.586;2022-11-13T18:22:21;26.35;;;14.95;;
61373;SDS011;47242;48.158;-1.586;2022-11-13T18:24:47;22.20;;;14.90;;
61373;SDS011;47242;48.158;-1.586;2022-11-13T18:27:12;22.30;;;14.05;;
61373;SDS011;47242;48.158;-1.586;2022-11-13T18:29:38;20.60;;;13.77;;
61373;SDS011;47242;48.158;-1.586;2022-11-13T18:32:05;24.45;;;14.35;;
61373;SDS011;47242;48.158;-1.586;2022-11-13T18:34:31;19.98;;;13.10;;
61373;SDS011;47242;48.158;-1.586;2022-11-13T18:36:57;23.15;;;14.15;;
61373;SDS011;47242;48.158;-1.586;2022-11-13T18:39:23;25.58;;;14.65;;
61373;SDS011;47242;48.158;-1.586;2022-11-13T18:41:49;23.00;;;14.18;;
61373;SDS011;47242;48.158;-1.586;2022-11-13T18:44:15;20.20;;;11.85;;
61373;SDS011;47242;48.158;-1.586;2022-11-13T18:46:40;27.30;;;16.90;;
61373;SDS011;47242;48.158;-1.586;2022-11-13T18:49:06;27.40;;;14.70;;
61373;SDS011;47242;48.158;-1.586;2022-11-13T18:51:36;23.98;;;14.95;;
61373;SDS011;47242;48.158;-1.586;2022-11-13T18:54:02;30.98;;;18.30;;
61373;SDS011;47242;48.158;-1.586;2022-11-13T18:56:29;28.83;;;16.58;;
61373;SDS011;47242;48.158;-1.586;2022-11-13T18:58:56;25.83;;;14.85;;
61373;SDS011;47242;48.158;-1.586;2022-11-13T19:01:23;23.55;;;14.90;;
61373;SDS011;47242;48.158;-1.586;2022-11-13T19:03:55;30.48;;;16.88;;
61373;SDS011;47242;48.158;-1.586;2022-11-13T19:06:24;24.75;;;15.52;;
61373;SDS011;47242;48.158;-1.586;2022-11-13T19:08:59;22.10;;;14.80;;
61373;SDS011;47242;48.158;-1.586;2022-11-13T19:11:29;22.83;;;14.63;;
61373;SDS011;47242;48.158;-1.586;2022-11-13T19:13:55;24.55;;;16.23;;
61373;SDS011;47242;48.158;-1.586;2022-11-13T19:16:25;27.50;;;17.25;;
61373;SDS011;47242;48.158;-1.586;2022-11-13T19:18:57;28.75;;;14.80;;
61373;SDS011;47242;48.158;-1.586;2022-11-13T19:21:25;25.42;;;14.95;;
61373;SDS011;47242;48.158;-1.586;2022-11-13T19:23:53;26.10;;;17.15;;
61373;SDS011;47242;48.158;-1.586;2022-11-13T19:26:19;24.17;;;16.25;;
61373;SDS011;47242;48.158;-1.586;2022-11-13T19:28:45;23.38;;;15.10;;
61373;SDS011;47242;48.158;-1.586;2022-11-13T19:34:10;22.90;;;14.50;;
61373;SDS011;47242;48.158;-1.586;2022-11-13T19:36:36;27.80;;;15.82;;
61373;SDS011;47242;48.158;-1.586;2022-11-13T19:39:02;24.65;;;15.90;;
61373;SDS011;47242;48.158;-1.586;2022-11-13T19:41:28;28.40;;;17.92;;
61373;SDS011;47242;48.158;-1.586;2022-11-13T19:43:55;27.92;;;17.33;;
61373;SDS011;47242;48.158;-1.586;2022-11-13T19:46:23;27.42;;;15.63;;
61373;SDS011;47242;48.158;-1.586;2022-11-13T19:48:50;28.45;;;16.92;;
61373;SDS011;47242;48.158;-1.586;2022-11-13T19:51:19;26.70;;;17.50;;
61373;SDS011;47242;48.158;-1.586;2022-11-13T19:53:46;30.00;;;18.65;;
61373;SDS011;47242;48.158;-1.586;2022-11-13T19:56:16;33.22;;;20.92;;
61373;SDS011;47242;48.158;-1.586;2022-11-13T19:58:45;29.10;;;19.77;;
61373;SDS011;47242;48.158;-1.586;2022-11-13T20:01:19;37.88;;;23.05;;
61373;SDS011;47242;48.158;-1.586;2022-11-13T20:03:45;48.58;;;26.25;;
61373;SDS011;47242;48.158;-1.586;2022-11-13T20:06:12;46.08;;;26.00;;
61373;SDS011;47242;48.158;-1.586;2022-11-13T20:08:39;34.47;;;23.25;;
61373;SDS011;47242;48.158;-1.586;2022-11-13T20:11:06;30.58;;;20.17;;
61373;SDS011;47242;48.158;-1.586;2022-11-13T20:13:44;37.97;;;22.58;;
61373;SDS011;47242;48.158;-1.586;2022-11-13T20:16:11;36.95;;;19.88;;
61373;SDS011;47242;48.158;-1.586;2022-11-13T20:18:38;33.13;;;20.27;;
61373;SDS011;47242;48.158;-1.586;2022-11-13T20:21:05;38.80;;;22.73;;
61373;SDS011;47242;48.158;-1.586;2022-11-13T20:23:31;44.80;;;25.40;;
61373;SDS011;47242;48.158;-1.586;2022-11-13T20:26:00;39.75;;;22.67;;
61373;SDS011;47242;48.158;-1.586;2022-11-13T20:28:28;35.55;;;21.45;;
61373;SDS011;47242;48.158;-1.586;2022-11-13T20:31:05;31.23;;;20.08;;
61373;SDS011;47242;48.158;-1.586;2022-11-13T20:33:35;42.85;;;22.67;;
61373;SDS011;47242;48.158;-1.586;2022-11-13T20:36:01;35.80;;;22.55;;
61373;SDS011;47242;48.158;-1.586;2022-11-13T20:38:28;42.47;;;26.02;;
61373;SDS011;47242;48.158;-1.586;2022-11-13T20:40:54;37.90;;;22.98;;
61373;SDS011;47242;48.158;-1.586;2022-11-13T20:43:20;33.92;;;22.77;;
61373;SDS011;47242;48.158;-1.586;2022-11-13T20:45:45;36.08;;;21.42;;
61373;SDS011;47242;48.158;-1.586;2022-11-13T20:48:11;39.85;;;23.45;;
61373;SDS011;47242;48.158;-1.586;2022-11-13T20:50:37;46.35;;;26.05;;
61373;SDS011;47242;48.158;-1.586;2022-11-13T20:53:04;38.05;;;21.48;;
61373;SDS011;47242;48.158;-1.586;2022-11-13T20:55:30;37.42;;;22.45;;
61373;SDS011;47242;48.158;-1.586;2022-11-13T20:57:56;35.40;;;23.42;;
61373;SDS011;47242;48.158;-1.586;2022-11-13T21:00:21;44.25;;;24.52;;
61373;SDS011;47242;48.158;-1.586;2022-11-13T21:02:49;40.38;;;23.50;;
61373;SDS011;47242;48.158;-1.586;2022-11-13T21:05:15;45.00;;;24.45;;
61373;SDS011;47242;48.158;-1.586;2022-11-13T21:07:40;32.78;;;22.88;;
61373;SDS011;47242;48.158;-1.586;2022-11-13T21:10:06;41.08;;;22.75;;
61373;SDS011;47242;48.158;-1.586;2022-11-13T21:12:32;40.28;;;21.52;;
61373;SDS011;47242;48.158;-1.586;2022-11-13T21:14:58;35.70;;;21.10;;
61373;SDS011;47242;48.158;-1.586;2022-11-13T21:17:24;34.13;;;19.08;;
61373;SDS011;47242;48.158;-1.586;2022-11-13T21:19:49;31.95;;;18.83;;
61373;SDS011;47242;48.158;-1.586;2022-11-13T21:22:15;29.27;;;17.88;;
61373;SDS011;47242;48.158;-1.586;2022-11-13T21:24:40;31.20;;;20.27;;
61373;SDS011;47242;48.158;-1.586;2022-11-13T21:27:06;31.10;;;19.40;;
61373;SDS011;47242;48.158;-1.586;2022-11-13T21:29:32;29.45;;;17.08;;
61373;SDS011;47242;48.158;-1.586;2022-11-13T21:31:57;28.05;;;18.00;;
61373;SDS011;47242;48.158;-1.586;2022-11-13T21:34:23;32.65;;;19.42;;
61373;SDS011;47242;48.158;-1.586;2022-11-13T21:36:48;27.23;;;16.67;;
61373;SDS011;47242;48.158;-1.586;2022-11-13T21:39:14;24.98;;;16.88;;
61373;SDS011;47242;48.158;-1.586;2022-11-13T21:41:39;24.38;;;16.58;;
61373;SDS011;47242;48.158;-1.586;2022-11-13T21:44:06;22.77;;;15.50;;